createdAt,value
2023-05-04T00:00:44.202Z,26.11
2023-05-04T00:01:44.156Z,26.10
2023-05-04T00:02:44.272Z,26.11
2023-05-04T00:03:44.321Z,26.11
2023-05-04T00:04:44.185Z,26.10
2023-05-04T00:05:44.206Z,26.11
2023-05-04T00:06:44.227Z,26.13
2023-05-04T00:07:44.271Z,26.13
2023-05-04T00:08:44.270Z,26.11
2023-05-04T00:09:44.291Z,26.13
2023-05-04T00:10:44.288Z,26.14
2023-05-04T00:11:44.325Z,26.11
2023-05-04T00:12:44.434Z,26.14
2023-05-04T00:13:44.354Z,26.14
2023-05-04T00:14:44.431Z,26.14
2023-05-04T00:15:44.441Z,26.14
2023-05-04T00:16:44.530Z,26.13
2023-05-04T00:17:44.474Z,26.14
2023-05-04T00:18:44.451Z,26.16
2023-05-04T00:19:44.450Z,26.14
2023-05-04T00:20:44.489Z,26.08
2023-05-04T00:21:44.504Z,26.13
2023-05-04T00:22:44.454Z,26.13
2023-05-04T00:23:44.474Z,26.13
2023-05-04T00:24:44.510Z,26.11
2023-05-04T00:25:44.505Z,26.10
2023-05-04T00:26:44.516Z,26.11
2023-05-04T00:27:44.495Z,26.10
2023-05-04T00:28:44.524Z,26.10
2023-05-04T00:29:44.511Z,26.10
2023-05-04T00:30:44.558Z,26.08
2023-05-04T00:31:44.587Z,26.11
2023-05-04T00:32:44.611Z,26.11
2023-05-04T00:33:44.566Z,26.11
2023-05-04T00:34:44.587Z,26.10
2023-05-04T00:35:44.601Z,26.10
2023-05-04T00:36:44.623Z,26.11
2023-05-04T00:37:44.638Z,26.11
2023-05-04T00:38:44.641Z,26.10
2023-05-04T00:39:44.679Z,26.13
2023-05-04T00:40:44.700Z,26.13
2023-05-04T00:41:44.748Z,26.13
2023-05-04T00:42:44.758Z,26.10
2023-05-04T00:43:44.781Z,26.13
2023-05-04T00:44:44.753Z,26.11
2023-05-04T00:45:44.780Z,26.13
2023-05-04T00:46:45.245Z,26.13
2023-05-04T00:47:44.856Z,26.13
2023-05-04T00:48:44.793Z,26.11
2023-05-04T00:49:44.828Z,26.13
2023-05-04T00:50:44.865Z,26.16
2023-05-04T00:51:44.852Z,26.14
2023-05-04T00:52:44.869Z,26.13
2023-05-04T00:53:44.861Z,26.13
2023-05-04T00:54:44.868Z,26.16
2023-05-04T00:55:44.872Z,26.13
2023-05-04T00:56:44.919Z,26.13
2023-05-04T00:57:44.969Z,26.13
2023-05-04T00:58:44.934Z,26.14
2023-05-04T00:59:44.945Z,26.14
2023-05-04T01:00:45.007Z,26.13
2023-05-04T01:01:44.982Z,26.13
2023-05-04T01:02:45.038Z,26.11
2023-05-04T01:03:45.059Z,26.13
2023-05-04T01:04:45.018Z,26.13
2023-05-04T01:05:45.017Z,26.11
2023-05-04T01:06:45.734Z,26.11
2023-05-04T01:07:45.066Z,26.11
2023-05-04T01:08:45.065Z,26.10
2023-05-04T01:09:45.086Z,26.11
2023-05-04T01:10:45.119Z,26.11
2023-05-04T01:11:45.122Z,26.10
2023-05-04T01:12:45.170Z,26.11
2023-05-04T01:13:45.173Z,26.10
2023-05-04T01:14:45.138Z,26.11
2023-05-04T01:15:45.161Z,26.10
2023-05-04T01:16:45.237Z,26.11
2023-05-04T01:17:45.206Z,26.11
2023-05-04T01:18:45.209Z,26.10
2023-05-04T01:19:45.239Z,26.10
2023-05-04T01:20:45.264Z,26.11
2023-05-04T01:21:45.246Z,26.11
2023-05-04T01:22:45.279Z,26.13
2023-05-04T01:23:45.284Z,26.13
2023-05-04T01:24:45.328Z,26.10
2023-05-04T01:25:45.331Z,26.13
2023-05-04T01:26:45.356Z,26.14
2023-05-04T01:27:45.422Z,26.13
2023-05-04T01:28:45.362Z,26.11
2023-05-04T01:29:45.394Z,26.11
2023-05-04T01:30:45.443Z,26.10
2023-05-04T01:31:45.432Z,26.10
2023-05-04T01:32:45.448Z,26.10
2023-05-04T01:33:45.450Z,26.10
2023-05-04T01:34:45.462Z,26.10
2023-05-04T01:35:45.471Z,26.08
2023-05-04T01:36:45.747Z,26.10
2023-05-04T01:37:45.517Z,26.08
2023-05-04T01:38:45.569Z,26.07
2023-05-04T01:39:45.576Z,26.08
2023-05-04T01:40:45.578Z,26.08
2023-05-04T01:41:45.624Z,26.07
2023-05-04T01:42:45.846Z,26.07
2023-05-04T01:43:45.624Z,26.07
2023-05-04T01:44:45.657Z,26.04
2023-05-04T01:45:45.698Z,26.07
2023-05-04T01:46:45.745Z,26.07
2023-05-04T01:47:45.848Z,26.05
2023-05-04T01:48:45.782Z,26.07
2023-05-04T01:49:45.796Z,26.07
2023-05-04T01:50:45.900Z,26.07
2023-05-04T01:51:45.845Z,26.08
2023-05-04T01:52:45.906Z,26.05
2023-05-04T01:53:45.923Z,26.07
2023-05-04T01:54:45.935Z,26.10
2023-05-04T01:55:45.953Z,26.08
2023-05-04T01:56:45.996Z,26.10
2023-05-04T01:57:45.984Z,26.10
2023-05-04T01:58:46.018Z,26.10
2023-05-04T01:59:46.036Z,26.08
2023-05-04T02:00:46.059Z,26.07
2023-05-04T02:01:46.099Z,26.08
2023-05-04T02:02:46.176Z,26.11
2023-05-04T02:03:46.154Z,26.11
2023-05-04T02:04:46.125Z,26.10
2023-05-04T02:05:46.173Z,26.07
2023-05-04T02:06:46.251Z,26.08
2023-05-04T02:07:46.180Z,26.08
2023-05-04T02:08:46.193Z,26.07
2023-05-04T02:09:46.196Z,26.07
2023-05-04T02:10:46.204Z,26.04
2023-05-04T02:11:46.247Z,26.07
2023-05-04T02:12:46.410Z,26.07
2023-05-04T02:13:46.253Z,26.05
2023-05-04T02:14:46.337Z,26.08
2023-05-04T02:15:46.373Z,26.08
2023-05-04T02:16:46.344Z,26.10
2023-05-04T02:17:46.553Z,26.08
2023-05-04T02:18:46.346Z,26.07
2023-05-04T02:19:46.364Z,26.07
2023-05-04T02:20:46.436Z,26.08
2023-05-04T02:21:46.435Z,26.07
2023-05-04T02:22:46.460Z,26.10
2023-05-04T02:23:46.489Z,26.05
2023-05-04T02:24:46.492Z,26.05
2023-05-04T02:25:46.478Z,26.04
2023-05-04T02:26:46.495Z,26.07
2023-05-04T02:27:46.510Z,26.04
2023-05-04T02:28:46.540Z,26.05
2023-05-04T02:29:46.543Z,26.05
2023-05-04T02:30:46.543Z,26.05
2023-05-04T02:31:47.365Z,26.04
2023-05-04T02:32:46.621Z,26.05
2023-05-04T02:33:46.635Z,26.04
2023-05-04T02:34:46.592Z,26.04
2023-05-04T02:35:46.608Z,26.04
2023-05-04T02:36:46.588Z,26.05
2023-05-04T02:37:46.609Z,26.07
2023-05-04T02:38:46.675Z,26.05
2023-05-04T02:39:46.663Z,26.07
2023-05-04T02:40:46.647Z,26.04
2023-05-04T02:41:46.652Z,26.04
2023-05-04T02:42:46.694Z,26.04
2023-05-04T02:43:46.657Z,26.04
2023-05-04T02:44:46.700Z,26.05
2023-05-04T02:45:46.708Z,26.04
2023-05-04T02:46:46.707Z,26.04
2023-05-04T02:47:46.784Z,26.04
2023-05-04T02:48:46.712Z,26.04
2023-05-04T02:49:46.816Z,26.04
2023-05-04T02:50:46.787Z,26.03
2023-05-04T02:51:47.323Z,26.03
2023-05-04T02:52:46.789Z,26.04
2023-05-04T02:53:46.820Z,26.05
2023-05-04T02:54:46.811Z,26.05
2023-05-04T02:55:46.798Z,26.07
2023-05-04T02:56:46.855Z,26.05
2023-05-04T02:57:47.791Z,26.08
2023-05-04T02:58:46.867Z,26.05
2023-05-04T02:59:46.878Z,26.07
2023-05-04T03:00:46.837Z,26.05
2023-05-04T03:01:46.942Z,26.04
2023-05-04T03:02:46.946Z,26.01
2023-05-04T03:03:46.931Z,26.04
2023-05-04T03:04:46.961Z,26.00
2023-05-04T03:05:46.970Z,26.01
2023-05-04T03:06:47.050Z,26.03
2023-05-04T03:07:47.011Z,26.01
2023-05-04T03:08:47.076Z,26.01
2023-05-04T03:09:48.070Z,26.01
2023-05-04T03:10:47.075Z,26.00
2023-05-04T03:11:47.060Z,26.03
2023-05-04T03:12:47.147Z,26.01
2023-05-04T03:13:47.115Z,26.00
2023-05-04T03:14:47.147Z,26.01
2023-05-04T03:15:47.156Z,26.05
2023-05-04T03:16:47.276Z,26.03
2023-05-04T03:17:47.219Z,26.01
2023-05-04T03:18:57.967Z,26.04
2023-05-04T03:19:47.247Z,26.03
2023-05-04T03:20:47.192Z,26.03
2023-05-04T03:21:47.229Z,26.04
2023-05-04T03:22:47.194Z,26.01
2023-05-04T03:23:47.202Z,26.05
2023-05-04T03:24:47.144Z,26.03
2023-05-04T03:25:47.177Z,26.05
2023-05-04T03:26:47.199Z,26.04
2023-05-04T03:27:47.170Z,26.01
2023-05-04T03:28:47.146Z,26.01
2023-05-04T03:29:47.155Z,26.03
2023-05-04T03:30:47.126Z,26.04
2023-05-04T03:31:47.134Z,26.04
2023-05-04T03:32:47.128Z,26.04
2023-05-04T03:33:47.086Z,26.03
2023-05-04T03:34:47.104Z,26.03
2023-05-04T03:35:47.122Z,26.04
2023-05-04T03:36:47.091Z,26.00
2023-05-04T03:37:47.067Z,26.00
2023-05-04T03:38:47.067Z,26.00
2023-05-04T03:39:47.103Z,26.01
2023-05-04T03:40:47.071Z,26.04
2023-05-04T03:41:47.034Z,25.98
2023-05-04T03:42:47.037Z,26.00
2023-05-04T03:43:47.065Z,26.01
2023-05-04T03:44:47.038Z,26.03
2023-05-04T03:45:47.156Z,26.00
2023-05-04T03:46:47.119Z,26.03
2023-05-04T03:47:47.155Z,26.03
2023-05-04T03:48:47.150Z,26.01
2023-05-04T03:49:47.151Z,26.03
2023-05-04T03:50:47.195Z,26.03
2023-05-04T03:51:47.213Z,26.04
2023-05-04T03:52:47.238Z,26.03
2023-05-04T03:53:47.245Z,26.03
2023-05-04T03:54:47.254Z,26.03
2023-05-04T03:55:47.285Z,26.01
2023-05-04T03:56:47.300Z,26.01
2023-05-04T03:57:47.362Z,26.00
2023-05-04T03:58:47.345Z,26.03
2023-05-04T03:59:47.358Z,26.01
2023-05-04T04:00:47.379Z,26.00
2023-05-04T04:01:47.407Z,26.00
2023-05-04T04:02:47.512Z,25.98
2023-05-04T04:03:47.489Z,25.97
2023-05-04T04:04:47.455Z,25.98
2023-05-04T04:05:47.472Z,25.98
2023-05-04T04:06:47.442Z,26.00
2023-05-04T04:07:47.511Z,25.97
2023-05-04T04:08:47.476Z,25.98
2023-05-04T04:09:47.498Z,25.98
2023-05-04T04:10:47.559Z,25.97
2023-05-04T04:11:47.568Z,26.00
2023-05-04T04:12:47.664Z,25.98
2023-05-04T04:13:47.667Z,25.97
2023-05-04T04:14:47.633Z,26.00
2023-05-04T04:15:47.671Z,25.98
2023-05-04T04:16:47.690Z,25.98
2023-05-04T04:17:47.855Z,26.00
2023-05-04T04:18:47.747Z,25.97
2023-05-04T04:19:47.764Z,25.98
2023-05-04T04:20:47.785Z,26.00
2023-05-04T04:21:47.823Z,25.98
2023-05-04T04:22:47.895Z,25.97
2023-05-04T04:23:47.920Z,26.01
2023-05-04T04:24:47.913Z,25.97
2023-05-04T04:25:48.016Z,25.96
2023-05-04T04:26:48.031Z,25.97
2023-05-04T04:27:48.020Z,25.96
2023-05-04T04:28:48.048Z,25.97
2023-05-04T04:29:48.072Z,25.96
2023-05-04T04:30:48.096Z,25.97
2023-05-04T04:31:48.352Z,25.96
2023-05-04T04:32:48.187Z,25.94
2023-05-04T04:33:48.167Z,25.96
2023-05-04T04:34:48.228Z,25.96
2023-05-04T04:35:48.248Z,25.94
2023-05-04T04:36:48.302Z,25.94
2023-05-04T04:37:48.317Z,25.93
2023-05-04T04:38:48.325Z,25.93
2023-05-04T04:39:48.359Z,25.93
2023-05-04T04:40:48.414Z,25.94
2023-05-04T04:41:48.414Z,25.91
2023-05-04T04:42:48.464Z,25.93
2023-05-04T04:43:48.478Z,25.93
2023-05-04T04:44:48.604Z,25.91
2023-05-04T04:45:48.528Z,25.91
2023-05-04T04:46:48.644Z,25.91
2023-05-04T04:47:48.626Z,25.91
2023-05-04T04:48:48.631Z,25.93
2023-05-04T04:49:48.697Z,25.91
2023-05-04T04:50:48.710Z,25.93
2023-05-04T04:51:48.747Z,25.93
2023-05-04T04:52:48.764Z,25.91
2023-05-04T04:53:48.822Z,25.91
2023-05-04T04:54:48.829Z,25.93
2023-05-04T04:55:48.924Z,25.91
2023-05-04T04:56:48.939Z,25.93
2023-05-04T04:57:48.996Z,25.91
2023-05-04T04:58:48.983Z,25.94
2023-05-04T04:59:49.044Z,25.96
2023-05-04T05:00:49.196Z,25.96
2023-05-04T05:01:49.124Z,25.94
2023-05-04T05:02:49.178Z,25.94
2023-05-04T05:03:49.238Z,25.91
2023-05-04T05:04:49.382Z,25.91
2023-05-04T05:05:49.244Z,25.93
2023-05-04T05:06:49.310Z,25.94
2023-05-04T05:07:49.322Z,25.94
2023-05-04T05:08:49.354Z,25.94
2023-05-04T05:09:49.377Z,25.97
2023-05-04T05:10:49.384Z,26.00
2023-05-04T05:11:49.468Z,26.00
2023-05-04T05:12:49.849Z,25.98
2023-05-04T05:13:49.457Z,26.00
2023-05-04T05:14:49.517Z,26.00
2023-05-04T05:15:49.485Z,26.01
2023-05-04T05:16:49.611Z,26.04
2023-05-04T05:17:49.659Z,26.01
2023-05-04T05:18:49.601Z,26.01
2023-05-04T05:19:49.609Z,26.00
2023-05-04T05:20:49.638Z,26.01
2023-05-04T05:21:49.645Z,25.96
2023-05-04T05:22:49.670Z,25.97
2023-05-04T05:23:49.745Z,25.93
2023-05-04T05:24:49.756Z,25.91
2023-05-04T05:25:49.788Z,25.93
2023-05-04T05:26:49.853Z,25.91
2023-05-04T05:27:49.890Z,25.90
2023-05-04T05:28:49.872Z,25.90
2023-05-04T05:29:49.881Z,25.90
2023-05-04T05:30:50.009Z,25.90
2023-05-04T05:31:50.093Z,25.91
2023-05-04T05:32:50.000Z,25.91
2023-05-04T05:33:50.073Z,25.86
2023-05-04T05:34:50.143Z,25.84
2023-05-04T05:35:50.396Z,25.87
2023-05-04T05:36:50.155Z,25.86
2023-05-04T05:37:50.864Z,25.86
2023-05-04T05:38:50.478Z,25.81
2023-05-04T05:39:50.240Z,25.80
2023-05-04T05:40:50.326Z,25.72
2023-05-04T05:41:50.383Z,25.72
2023-05-04T05:42:50.474Z,25.69
2023-05-04T05:43:50.421Z,25.69
2023-05-04T05:44:50.446Z,25.69
2023-05-04T05:45:50.538Z,25.66
2023-05-04T05:46:50.540Z,25.67
2023-05-04T05:47:50.597Z,25.67
2023-05-04T05:48:50.659Z,25.67
2023-05-04T05:49:50.738Z,25.64
2023-05-04T05:50:50.763Z,25.62
2023-05-04T05:51:50.852Z,25.64
2023-05-04T05:52:50.894Z,25.64
2023-05-04T05:53:50.960Z,25.66
2023-05-04T05:54:50.970Z,25.63
2023-05-04T05:55:51.081Z,25.64
2023-05-04T05:56:51.123Z,25.66
2023-05-04T05:57:51.849Z,25.69
2023-05-04T05:58:51.202Z,25.69
2023-05-04T05:59:51.445Z,25.69
2023-05-04T06:00:51.283Z,25.69
2023-05-04T06:01:51.352Z,25.69
2023-05-04T06:02:51.494Z,25.73
2023-05-04T06:03:51.655Z,25.76
2023-05-04T06:04:51.612Z,25.76
2023-05-04T06:05:51.619Z,25.76
2023-05-04T06:06:51.617Z,25.77
2023-05-04T06:07:52.393Z,25.77
2023-05-04T06:08:51.684Z,25.77
2023-05-04T06:09:51.763Z,25.80
2023-05-04T06:10:51.736Z,25.80
2023-05-04T06:11:53.344Z,25.83
2023-05-04T06:12:51.921Z,25.84
2023-05-04T06:13:51.796Z,25.87
2023-05-04T06:14:51.808Z,25.84
2023-05-04T06:15:51.919Z,25.84
2023-05-04T06:16:51.773Z,25.86
2023-05-04T06:17:51.799Z,25.90
2023-05-04T06:18:51.775Z,25.90
2023-05-04T06:19:51.744Z,25.90
2023-05-04T06:20:51.751Z,25.88
2023-05-04T06:21:51.844Z,25.90
2023-05-04T06:22:51.814Z,25.90
2023-05-04T06:23:51.713Z,25.90
2023-05-04T06:24:52.907Z,25.88
2023-05-04T06:25:51.697Z,25.87
2023-05-04T06:26:51.728Z,25.88
2023-05-04T06:27:51.689Z,25.88
2023-05-04T06:28:51.693Z,25.88
2023-05-04T06:29:51.761Z,25.91
2023-05-04T06:30:51.680Z,25.91
2023-05-04T06:31:52.401Z,25.88
2023-05-04T06:32:51.787Z,25.88
2023-05-04T06:33:51.788Z,25.90
2023-05-04T06:34:51.828Z,25.90
2023-05-04T06:35:51.813Z,25.87
2023-05-04T06:36:51.906Z,25.87
2023-05-04T06:37:52.453Z,25.86
2023-05-04T06:38:52.066Z,25.79
2023-05-04T06:39:51.964Z,25.64
2023-05-04T06:40:52.021Z,25.64
2023-05-04T06:41:52.012Z,25.67
2023-05-04T06:42:52.368Z,25.72
2023-05-04T06:43:52.023Z,25.69
2023-05-04T06:44:52.059Z,25.73
2023-05-04T06:45:52.154Z,25.76
2023-05-04T06:46:52.193Z,25.77
2023-05-04T06:47:52.289Z,25.77
2023-05-04T06:48:52.169Z,25.79
2023-05-04T06:49:52.245Z,25.80
2023-05-04T06:50:52.242Z,25.80
2023-05-04T06:51:52.290Z,25.81
2023-05-04T06:52:52.418Z,25.80
2023-05-04T06:53:52.393Z,25.80
2023-05-04T06:54:52.394Z,25.81
2023-05-04T06:55:52.721Z,25.81
2023-05-04T06:56:52.500Z,25.81
2023-05-04T06:57:52.499Z,25.80
2023-05-04T06:58:52.546Z,25.84
2023-05-04T06:59:52.615Z,25.81
2023-05-04T07:00:52.627Z,25.83
2023-05-04T07:01:52.653Z,25.81
2023-05-04T07:02:52.815Z,25.80
2023-05-04T07:03:52.876Z,25.81
2023-05-04T07:04:52.852Z,25.80
2023-05-04T07:05:53.389Z,25.81
2023-05-04T07:06:52.888Z,25.79
2023-05-04T07:07:52.944Z,25.83
2023-05-04T07:08:52.910Z,25.81
2023-05-04T07:09:53.063Z,25.81
2023-05-04T07:10:53.929Z,25.87
2023-05-04T07:11:52.994Z,25.83
2023-05-04T07:12:53.072Z,25.88
2023-05-04T07:13:53.089Z,25.84
2023-05-04T07:14:53.161Z,25.86
2023-05-04T07:15:53.165Z,25.84
2023-05-04T07:16:53.178Z,25.84
2023-05-04T07:17:53.284Z,25.84
2023-05-04T07:18:53.251Z,25.83
2023-05-04T07:19:53.372Z,25.84
2023-05-04T07:21:01.610Z,25.84
2023-05-04T07:21:54.368Z,25.86
2023-05-04T07:22:53.422Z,25.84
2023-05-04T07:23:53.313Z,25.83
2023-05-04T07:24:53.372Z,25.83
2023-05-04T07:25:53.802Z,25.81
2023-05-04T07:26:53.352Z,25.81
2023-05-04T07:27:53.318Z,25.81
2023-05-04T07:28:53.298Z,25.81
2023-05-04T07:29:53.510Z,25.84
2023-05-04T07:30:53.325Z,25.86
2023-05-04T07:31:53.312Z,25.81
2023-05-04T07:32:53.303Z,25.74
2023-05-04T07:33:53.332Z,25.70
2023-05-04T07:34:54.029Z,25.77
2023-05-04T07:35:53.399Z,25.79
2023-05-04T07:36:53.433Z,25.79
2023-05-04T07:37:53.983Z,25.77
2023-05-04T07:38:53.539Z,25.81
2023-05-04T07:39:53.537Z,25.76
2023-05-04T07:40:53.575Z,25.81
2023-05-04T07:41:53.628Z,25.80
2023-05-04T07:42:54.411Z,25.79
2023-05-04T07:43:53.708Z,25.84
2023-05-04T07:44:53.788Z,25.86
2023-05-04T07:45:53.865Z,25.83
2023-05-04T07:46:54.869Z,25.86
2023-05-04T07:47:53.911Z,25.84
2023-05-04T07:48:53.981Z,25.86
2023-05-04T07:49:53.970Z,25.86
2023-05-04T07:50:54.172Z,25.87
2023-05-04T07:51:54.009Z,25.86
2023-05-04T07:52:54.039Z,25.86
2023-05-04T07:53:54.076Z,25.88
2023-05-04T07:54:54.186Z,25.88
2023-05-04T07:55:54.160Z,25.84
2023-05-04T07:56:54.187Z,25.87
2023-05-04T07:57:54.284Z,25.86
2023-05-04T07:58:54.272Z,25.90
2023-05-04T07:59:54.321Z,25.88
2023-05-04T08:00:54.340Z,25.88
2023-05-04T08:01:54.489Z,25.91
2023-05-04T08:02:54.450Z,25.90
2023-05-04T08:03:54.519Z,25.94
2023-05-04T08:04:54.526Z,25.91
2023-05-04T08:05:54.549Z,25.91
2023-05-04T08:06:54.590Z,25.94
2023-05-04T08:07:54.650Z,25.96
2023-05-04T08:08:54.635Z,25.94
2023-05-04T08:09:54.663Z,25.94
2023-05-04T08:10:57.759Z,25.93
2023-05-04T08:11:55.677Z,25.93
2023-05-04T08:12:54.685Z,25.96
2023-05-04T08:13:54.901Z,25.96
2023-05-04T08:14:54.704Z,25.97
2023-05-04T08:15:54.668Z,25.94
2023-05-04T08:16:54.664Z,25.97
2023-05-04T08:17:54.677Z,25.96
2023-05-04T08:18:54.740Z,25.97
2023-05-04T08:19:55.462Z,25.98
2023-05-04T08:20:54.672Z,25.93
2023-05-04T08:21:54.677Z,25.97
2023-05-04T08:22:54.912Z,25.94
2023-05-04T08:23:54.596Z,25.93
2023-05-04T08:24:54.646Z,25.86
2023-05-04T08:25:54.592Z,25.87
2023-05-04T08:27:06.614Z,25.80
2023-05-04T08:27:55.895Z,25.90
2023-05-04T08:28:54.955Z,25.94
2023-05-04T08:29:54.599Z,25.94
2023-05-04T08:30:54.577Z,25.97
2023-05-04T08:31:54.616Z,25.98
2023-05-04T08:32:54.593Z,26.01
2023-05-04T08:33:54.560Z,26.01
2023-05-04T08:34:54.620Z,26.04
2023-05-04T08:35:54.538Z,26.04
2023-05-04T08:36:54.550Z,26.07
2023-05-04T08:37:54.926Z,26.07
2023-05-04T08:38:54.938Z,26.05
2023-05-04T08:39:54.496Z,26.01
2023-05-04T08:40:54.506Z,26.00
2023-05-04T08:41:54.502Z,25.98
2023-05-04T08:42:54.499Z,25.93
2023-05-04T08:43:54.569Z,25.74
2023-05-04T08:44:54.494Z,25.74
2023-05-04T08:45:54.469Z,25.76
2023-05-04T08:46:54.476Z,25.80
2023-05-04T08:47:55.008Z,25.80
2023-05-04T08:48:54.462Z,25.81
2023-05-04T08:49:54.423Z,25.84
2023-05-04T08:50:54.441Z,25.88
2023-05-04T08:51:54.440Z,25.90
2023-05-04T08:52:54.427Z,25.84
2023-05-04T08:53:54.439Z,25.87
2023-05-04T08:54:54.504Z,25.81
2023-05-04T08:55:54.489Z,25.69
2023-05-04T08:56:54.512Z,25.59
2023-05-04T08:57:54.932Z,25.49
2023-05-04T08:58:54.566Z,25.59
2023-05-04T08:59:54.537Z,25.63
2023-05-04T09:00:54.608Z,25.67
2023-05-04T09:01:54.680Z,25.69
2023-05-04T09:02:54.713Z,25.73
2023-05-04T09:03:54.719Z,25.73
2023-05-04T09:04:54.610Z,25.74
2023-05-04T09:05:54.638Z,25.72
2023-05-04T09:06:54.613Z,25.72
2023-05-04T09:07:54.707Z,25.76
2023-05-04T09:08:54.727Z,25.76
2023-05-04T09:09:54.744Z,25.73
2023-05-04T09:10:55.432Z,25.76
2023-05-04T09:11:54.845Z,25.74
2023-05-04T09:12:54.801Z,25.74
2023-05-04T09:13:54.851Z,25.77
2023-05-04T09:14:54.836Z,25.74
2023-05-04T09:15:54.936Z,25.76
2023-05-04T09:16:54.923Z,25.76
2023-05-04T09:17:57.632Z,25.76
2023-05-04T09:18:54.909Z,25.77
2023-05-04T09:19:54.864Z,25.79
2023-05-04T09:20:54.861Z,25.79
2023-05-04T09:21:54.867Z,25.77
2023-05-04T09:22:54.885Z,25.79
2023-05-04T09:23:54.874Z,25.77
2023-05-04T09:24:54.838Z,25.79
2023-05-04T09:25:54.849Z,25.80
2023-05-04T09:26:54.838Z,25.80
2023-05-04T09:27:54.847Z,25.80
2023-05-04T09:28:54.820Z,25.80
2023-05-04T09:29:54.816Z,25.80
2023-05-04T09:30:54.957Z,25.83
2023-05-04T09:31:54.808Z,25.84
2023-05-04T09:32:54.861Z,25.84
2023-05-04T09:33:54.794Z,25.84
2023-05-04T09:34:54.811Z,25.79
2023-05-04T09:35:54.775Z,25.76
2023-05-04T09:36:54.786Z,25.81
2023-05-04T09:37:54.758Z,25.80
2023-05-04T09:38:54.789Z,25.84
2023-05-04T09:39:54.750Z,25.87
2023-05-04T09:40:54.763Z,25.87
2023-05-04T09:41:54.797Z,25.90
2023-05-04T09:42:54.757Z,25.91
2023-05-04T09:43:54.722Z,25.93
2023-05-04T09:44:54.729Z,25.94
2023-05-04T09:45:54.750Z,25.96
2023-05-04T09:46:54.725Z,25.94
2023-05-04T09:47:54.972Z,25.96
2023-05-04T09:48:54.719Z,25.97
2023-05-04T09:49:54.708Z,25.94
2023-05-04T09:50:54.750Z,25.94
2023-05-04T09:51:54.706Z,25.93
2023-05-04T09:52:54.674Z,25.96
2023-05-04T09:53:54.691Z,25.94
2023-05-04T09:54:54.652Z,25.94
2023-05-04T09:55:54.681Z,25.98
2023-05-04T09:56:54.650Z,26.00
2023-05-04T09:57:54.625Z,26.00
2023-05-04T09:58:54.719Z,26.01
2023-05-04T09:59:54.650Z,26.01
2023-05-04T10:00:54.614Z,26.03
2023-05-04T10:01:54.658Z,26.04
2023-05-04T10:02:54.599Z,26.05
2023-05-04T10:03:54.629Z,26.04
2023-05-04T10:04:54.610Z,26.07
2023-05-04T10:05:54.609Z,26.05
2023-05-04T10:06:54.581Z,26.10
2023-05-04T10:07:54.596Z,26.08
2023-05-04T10:08:54.558Z,26.07
2023-05-04T10:09:54.582Z,26.08
2023-05-04T10:10:54.541Z,26.08
2023-05-04T10:11:55.448Z,26.08
2023-05-04T10:12:54.593Z,26.05
2023-05-04T10:13:54.568Z,26.08
2023-05-04T10:14:54.530Z,26.07
2023-05-04T10:15:54.559Z,26.10
2023-05-04T10:16:54.507Z,26.08
2023-05-04T10:17:54.566Z,26.10
2023-05-04T10:18:54.532Z,26.08
2023-05-04T10:19:54.490Z,26.08
2023-05-04T10:20:54.475Z,26.11
2023-05-04T10:21:54.508Z,26.13
2023-05-04T10:22:54.473Z,26.11
2023-05-04T10:23:54.538Z,26.11
2023-05-04T10:24:54.447Z,26.08
2023-05-04T10:25:54.431Z,26.07
2023-05-04T10:26:54.472Z,25.98
2023-05-04T10:27:54.476Z,25.98
2023-05-04T10:28:54.485Z,25.98
2023-05-04T10:29:54.436Z,25.98
2023-05-04T10:30:54.435Z,26.00
2023-05-04T10:31:54.439Z,26.04
2023-05-04T10:32:54.555Z,26.07
2023-05-04T10:33:54.473Z,26.07
2023-05-04T10:34:56.195Z,26.13
2023-05-04T10:35:54.516Z,26.13
2023-05-04T10:36:54.423Z,26.10
2023-05-04T10:37:54.625Z,26.13
2023-05-04T10:38:54.460Z,26.10
2023-05-04T10:39:54.392Z,26.13
2023-05-04T10:40:54.347Z,26.11
2023-05-04T10:41:54.369Z,26.16
2023-05-04T10:42:54.336Z,26.16
2023-05-04T10:43:54.364Z,26.18
2023-05-04T10:44:54.317Z,26.18
2023-05-04T10:45:54.355Z,26.17
2023-05-04T10:46:54.865Z,26.18
2023-05-04T10:47:54.365Z,26.20
2023-05-04T10:48:54.347Z,26.21
2023-05-04T10:49:54.296Z,26.20
2023-05-04T10:50:54.981Z,26.18
2023-05-04T10:51:54.270Z,26.20
2023-05-04T10:52:54.385Z,26.20
2023-05-04T10:53:55.073Z,26.20
2023-05-04T10:54:54.263Z,26.18
2023-05-04T10:55:54.299Z,26.16
2023-05-04T10:56:54.376Z,26.14
2023-05-04T10:57:54.278Z,26.10
2023-05-04T10:58:54.243Z,26.10
2023-05-04T10:59:54.221Z,26.08
2023-05-04T11:00:54.257Z,26.05
2023-05-04T11:01:54.210Z,26.08
2023-05-04T11:02:54.231Z,26.10
2023-05-04T11:03:54.275Z,26.05
2023-05-04T11:04:54.182Z,26.05
2023-05-04T11:05:54.293Z,26.07
2023-05-04T11:06:54.177Z,26.05
2023-05-04T11:07:54.159Z,26.01
2023-05-04T11:08:54.273Z,26.04
2023-05-04T11:09:54.154Z,26.05
2023-05-04T11:10:54.199Z,26.05
2023-05-04T11:11:54.156Z,26.01
2023-05-04T11:12:54.186Z,26.03
2023-05-04T11:13:54.149Z,26.03
2023-05-04T11:14:54.107Z,26.04
2023-05-04T11:15:54.099Z,26.01
2023-05-04T11:16:54.193Z,26.03
2023-05-04T11:17:54.137Z,26.04
2023-05-04T11:18:54.145Z,26.03
2023-05-04T11:19:54.110Z,26.01
2023-05-04T11:20:54.104Z,26.01
2023-05-04T11:21:54.133Z,26.03
2023-05-04T11:22:54.122Z,26.05
2023-05-04T11:23:54.490Z,26.05
2023-05-04T11:25:02.746Z,26.04
2023-05-04T11:25:55.098Z,26.07
2023-05-04T11:26:54.075Z,26.03
2023-05-04T11:27:54.057Z,26.05
2023-05-04T11:28:54.065Z,26.07
2023-05-04T11:29:54.019Z,26.05
2023-05-04T11:30:56.181Z,26.13
2023-05-04T11:31:54.181Z,26.14
2023-05-04T11:32:54.132Z,26.16
2023-05-04T11:33:54.001Z,26.17
2023-05-04T11:34:54.000Z,26.20
2023-05-04T11:35:54.005Z,26.18
2023-05-04T11:36:53.973Z,26.16
2023-05-04T11:37:53.965Z,26.17
2023-05-04T11:38:54.487Z,26.17
2023-05-04T11:39:53.977Z,26.18
2023-05-04T11:40:53.967Z,26.18
2023-05-04T11:41:53.949Z,26.18
2023-05-04T11:42:55.511Z,26.16
2023-05-04T11:43:54.498Z,26.18
2023-05-04T11:44:53.959Z,26.18
2023-05-04T11:45:53.943Z,26.17
2023-05-04T11:46:53.963Z,26.18
2023-05-04T11:47:53.978Z,26.17
2023-05-04T11:48:54.015Z,26.20
2023-05-04T11:49:53.891Z,26.18
2023-05-04T11:50:53.925Z,26.14
2023-05-04T11:51:53.873Z,26.18
2023-05-04T11:52:53.859Z,26.18
2023-05-04T11:53:53.908Z,26.18
2023-05-04T11:54:55.653Z,26.17
2023-05-04T11:55:53.964Z,26.20
2023-05-04T11:56:53.827Z,26.17
2023-05-04T11:57:53.840Z,26.20
2023-05-04T11:58:53.848Z,26.17
2023-05-04T11:59:53.827Z,26.20
2023-05-04T12:00:55.840Z,26.23
2023-05-04T12:01:53.795Z,26.21
2023-05-04T12:02:53.899Z,26.20
2023-05-04T12:03:54.469Z,26.20
2023-05-04T12:04:53.810Z,26.18
2023-05-04T12:05:53.801Z,26.18
2023-05-04T12:06:53.755Z,26.18
2023-05-04T12:07:53.754Z,26.17
2023-05-04T12:08:53.746Z,26.16
2023-05-04T12:09:53.747Z,26.13
2023-05-04T12:10:53.745Z,26.14
2023-05-04T12:11:53.734Z,26.04
2023-05-04T12:12:53.782Z,26.01
2023-05-04T12:13:53.725Z,26.04
2023-05-04T12:14:54.050Z,26.07
2023-05-04T12:15:53.729Z,26.11
2023-05-04T12:16:53.713Z,26.13
2023-05-04T12:17:53.721Z,26.11
2023-05-04T12:18:53.708Z,26.03
2023-05-04T12:19:53.732Z,26.00
2023-05-04T12:20:53.700Z,25.97
2023-05-04T12:21:53.728Z,25.98
2023-05-04T12:22:53.726Z,25.98
2023-05-04T12:23:53.762Z,26.00
2023-05-04T12:24:53.776Z,26.01
2023-05-04T12:25:58.039Z,26.04
2023-05-04T12:26:53.800Z,26.05
2023-05-04T12:27:53.766Z,26.08
2023-05-04T12:28:53.769Z,26.13
2023-05-04T12:29:53.763Z,26.13
2023-05-04T12:30:53.818Z,26.13
2023-05-04T12:31:53.799Z,26.13
2023-05-04T12:32:53.844Z,26.16
2023-05-04T12:33:53.752Z,26.18
2023-05-04T12:34:53.758Z,26.18
2023-05-04T12:35:53.724Z,26.18
2023-05-04T12:36:53.745Z,26.21
2023-05-04T12:37:53.745Z,26.18
2023-05-04T12:38:53.726Z,26.18
2023-05-04T12:39:53.698Z,26.20
2023-05-04T12:40:53.672Z,26.18
2023-05-04T12:41:53.679Z,26.20
2023-05-04T12:42:53.695Z,26.21
2023-05-04T12:43:53.650Z,26.20
2023-05-04T12:44:53.675Z,26.18
2023-05-04T12:45:53.651Z,26.20
2023-05-04T12:46:53.689Z,26.18
2023-05-04T12:47:53.703Z,26.17
2023-05-04T12:48:53.653Z,26.18
2023-05-04T12:49:53.647Z,26.17
2023-05-04T12:50:53.614Z,26.21
2023-05-04T12:51:53.621Z,26.20
2023-05-04T12:52:53.603Z,26.18